Aviation Digital Data Service (ADDS)

Output produced by METARs form (1256 UTC 22 March 2019)
found at http://www.aviationweather.gov/metar/data/
 
Forecast for: LFSB (BALE/MULHOUSE , FR)
Text: TAF LFSB 221100Z 2212/2312 VRB03KT CAVOK
Forecast period: 1200 UTC 22 March 2019 to 1200 UTC 23 March 2019
Forecast type: FROM: standard forecast or significant change
Winds: variable direction winds at 3 MPH (3 knots; 1.5 m/s)
Visibility: 6 or more miles 10+ km)
Ceiling: unknown
Clouds: missing
Weather: NSW  (no significant weather)
Text: PROB30
Forecast period: 0000 to 0600 UTC 23 March 2019
Forecast type: TEMPORARY: The following changes expected for less than half the time period
Visibility: 2.49 miles (4.01 km)
Ceiling: unknown
Clouds: missing
Weather: MIFG  (shallow fog)